sensor_id;sensor_type;location;lat;lon;timestamp;pressure;altitude;pressure_sealevel;temperature;humidity
12219;BME280;6172;42.646;23.344;2023-05-02T00:01:20;94899.81;;;10.74;100.00
12219;BME280;6172;42.646;23.344;2023-05-02T00:03:47;94909.03;;;10.84;100.00
12219;BME280;6172;42.646;23.344;2023-05-02T00:06:14;94904.78;;;10.83;100.00
12219;BME280;6172;42.646;23.344;2023-05-02T00:08:41;94902.03;;;10.83;100.00
12219;BME280;6172;42.646;23.344;2023-05-02T00:11:08;94897.31;;;10.87;100.00
12219;BME280;6172;42.646;23.344;2023-05-02T00:13:35;94907.19;;;10.77;100.00
12219;BME280;6172;42.646;23.344;2023-05-02T00:16:03;94903.53;;;10.87;100.00
12219;BME280;6172;42.646;23.344;2023-05-02T00:18:30;94907.38;;;10.63;100.00
12219;BME280;6172;42.646;23.344;2023-05-02T00:20:57;94909.19;;;10.73;100.00
12219;BME280;6172;42.646;23.344;2023-05-02T00:23:24;94906.91;;;10.68;100.00
12219;BME280;6172;42.646;23.344;2023-05-02T00:25:50;94918.81;;;10.81;100.00
12219;BME280;6172;42.646;23.344;2023-05-02T00:28:18;94915.47;;;10.70;100.00
12219;BME280;6172;42.646;23.344;2023-05-02T00:30:45;94928.19;;;10.80;100.00
12219;BME280;6172;42.646;23.344;2023-05-02T00:33:13;94915.88;;;10.69;100.00
12219;BME280;6172;42.646;23.344;2023-05-02T00:35:40;94919.34;;;10.69;100.00
12219;BME280;6172;42.646;23.344;2023-05-02T00:38:07;94925.91;;;10.75;100.00
12219;BME280;6172;42.646;23.344;2023-05-02T00:40:44;94931.72;;;10.77;100.00
12219;BME280;6172;42.646;23.344;2023-05-02T00:43:12;94934.13;;;10.72;100.00
12219;BME280;6172;42.646;23.344;2023-05-02T00:45:39;94940.34;;;10.72;100.00
12219;BME280;6172;42.646;23.344;2023-05-02T00:48:08;94930.34;;;10.62;100.00
12219;BME280;6172;42.646;23.344;2023-05-02T00:50:38;94929.59;;;10.62;100.00
12219;BME280;6172;42.646;23.344;2023-05-02T00:53:05;94921.94;;;10.46;100.00
12219;BME280;6172;42.646;23.344;2023-05-02T00:55:34;94931.22;;;10.52;100.00
12219;BME280;6172;42.646;23.344;2023-05-02T00:58:04;94922.53;;;10.30;100.00
12219;BME280;6172;42.646;23.344;2023-05-02T01:00:49;94920.94;;;10.33;100.00
12219;BME280;6172;42.646;23.344;2023-05-02T01:03:23;94923.59;;;10.40;100.00
12219;BME280;6172;42.646;23.344;2023-05-02T01:06:04;94933.88;;;10.25;100.00
12219;BME280;6172;42.646;23.344;2023-05-02T01:08:39;94934.63;;;10.26;100.00
12219;BME280;6172;42.646;23.344;2023-05-02T01:11:13;94933.91;;;10.22;100.00
12219;BME280;6172;42.646;23.344;2023-05-02T01:13:42;94936.38;;;10.09;100.00
12219;BME280;6172;42.646;23.344;2023-05-02T01:16:11;94931.41;;;10.01;100.00
12219;BME280;6172;42.646;23.344;2023-05-02T01:18:41;94930.88;;;10.13;100.00
12219;BME280;6172;42.646;23.344;2023-05-02T01:21:10;94917.31;;;10.09;100.00
12219;BME280;6172;42.646;23.344;2023-05-02T01:23:45;94918.63;;;9.94;100.00
12219;BME280;6172;42.646;23.344;2023-05-02T01:26:23;94915.13;;;9.90;100.00
12219;BME280;6172;42.646;23.344;2023-05-02T01:28:58;94921.63;;;10.07;100.00
12219;BME280;6172;42.646;23.344;2023-05-02T01:31:28;94913.16;;;9.94;100.00
12219;BME280;6172;42.646;23.344;2023-05-02T01:33:58;94908.91;;;9.90;100.00
12219;BME280;6172;42.646;23.344;2023-05-02T01:36:28;94927.16;;;9.96;100.00
12219;BME280;6172;42.646;23.344;2023-05-02T01:38:58;94921.81;;;9.82;100.00
12219;BME280;6172;42.646;23.344;2023-05-02T01:41:26;94927.22;;;9.86;100.00
12219;BME280;6172;42.646;23.344;2023-05-02T01:43:56;94926.16;;;9.73;100.00
12219;BME280;6172;42.646;23.344;2023-05-02T01:46:26;94928.88;;;9.76;100.00
12219;BME280;6172;42.646;23.344;2023-05-02T01:48:54;94935.03;;;9.84;100.00
12219;BME280;6172;42.646;23.344;2023-05-02T01:51:27;94932.00;;;9.75;100.00
12219;BME280;6172;42.646;23.344;2023-05-02T01:53:57;94938.84;;;9.46;100.00
12219;BME280;6172;42.646;23.344;2023-05-02T01:56:25;94921.00;;;9.41;100.00
12219;BME280;6172;42.646;23.344;2023-05-02T01:58:54;94918.03;;;9.22;100.00
12219;BME280;6172;42.646;23.344;2023-05-02T02:01:22;94920.41;;;9.13;100.00
12219;BME280;6172;42.646;23.344;2023-05-02T02:03:53;94926.69;;;9.06;100.00
12219;BME280;6172;42.646;23.344;2023-05-02T02:06:22;94913.88;;;9.03;100.00
12219;BME280;6172;42.646;23.344;2023-05-02T02:08:49;94932.47;;;9.12;100.00
12219;BME280;6172;42.646;23.344;2023-05-02T02:11:24;94941.81;;;9.04;100.00
12219;BME280;6172;42.646;23.344;2023-05-02T02:13:59;94935.94;;;9.12;100.00
12219;BME280;6172;42.646;23.344;2023-05-02T02:16:30;94928.56;;;9.13;100.00
12219;BME280;6172;42.646;23.344;2023-05-02T02:19:04;94932.19;;;8.92;100.00
12219;BME280;6172;42.646;23.344;2023-05-02T02:21:33;94934.91;;;8.92;100.00
12219;BME280;6172;42.646;23.344;2023-05-02T02:24:02;94934.47;;;9.01;100.00
12219;BME280;6172;42.646;23.344;2023-05-02T02:26:29;94928.38;;;8.83;100.00
12219;BME280;6172;42.646;23.344;2023-05-02T02:28:56;94934.91;;;8.96;100.00
12219;BME280;6172;42.646;23.344;2023-05-02T02:31:23;94922.47;;;8.95;100.00
12219;BME280;6172;42.646;23.344;2023-05-02T02:33:55;94938.00;;;8.98;100.00
12219;BME280;6172;42.646;23.344;2023-05-02T02:36:28;94924.06;;;8.85;100.00
12219;BME280;6172;42.646;23.344;2023-05-02T02:39:04;94935.63;;;9.00;100.00
12219;BME280;6172;42.646;23.344;2023-05-02T02:41:37;94941.44;;;9.05;100.00
12219;BME280;6172;42.646;23.344;2023-05-02T02:44:11;94936.78;;;9.09;100.00
12219;BME280;6172;42.646;23.344;2023-05-02T02:47:00;94933.38;;;8.91;100.00
12219;BME280;6172;42.646;23.344;2023-05-02T02:49:37;94943.44;;;8.98;100.00
12219;BME280;6172;42.646;23.344;2023-05-02T02:52:13;94944.13;;;9.09;100.00
12219;BME280;6172;42.646;23.344;2023-05-02T02:54:45;94943.84;;;8.96;100.00
12219;BME280;6172;42.646;23.344;2023-05-02T02:57:16;94951.94;;;9.03;100.00
12219;BME280;6172;42.646;23.344;2023-05-02T02:59:50;94939.94;;;8.94;100.00
12219;BME280;6172;42.646;23.344;2023-05-02T03:02:18;94943.78;;;9.03;100.00
12219;BME280;6172;42.646;23.344;2023-05-02T03:04:50;94951.59;;;8.98;100.00
12219;BME280;6172;42.646;23.344;2023-05-02T03:07:19;94951.16;;;9.06;100.00
12219;BME280;6172;42.646;23.344;2023-05-02T03:09:47;94965.16;;;9.05;100.00
12219;BME280;6172;42.646;23.344;2023-05-02T03:12:13;94958.88;;;9.15;100.00
12219;BME280;6172;42.646;23.344;2023-05-02T03:14:41;94967.78;;;9.19;100.00
12219;BME280;6172;42.646;23.344;2023-05-02T03:17:08;94968.63;;;9.09;100.00
12219;BME280;6172;42.646;23.344;2023-05-02T03:19:35;94965.84;;;9.19;100.00
12219;BME280;6172;42.646;23.344;2023-05-02T03:22:02;94978.72;;;9.05;100.00
12219;BME280;6172;42.646;23.344;2023-05-02T03:24:30;94981.41;;;9.08;100.00
12219;BME280;6172;42.646;23.344;2023-05-02T03:26:58;94979.53;;;9.02;100.00
12219;BME280;6172;42.646;23.344;2023-05-02T03:29:25;94979.84;;;9.11;100.00
12219;BME280;6172;42.646;23.344;2023-05-02T03:31:53;94989.22;;;9.03;100.00
12219;BME280;6172;42.646;23.344;2023-05-02T03:34:20;94978.38;;;8.99;100.00
12219;BME280;6172;42.646;23.344;2023-05-02T03:36:47;94980.31;;;8.95;100.00
12219;BME280;6172;42.646;23.344;2023-05-02T03:39:14;94978.38;;;8.99;100.00
12219;BME280;6172;42.646;23.344;2023-05-02T03:41:42;94982.22;;;9.09;100.00
12219;BME280;6172;42.646;23.344;2023-05-02T03:44:09;94971.34;;;9.05;100.00
12219;BME280;6172;42.646;23.344;2023-05-02T03:46:36;94984.13;;;9.08;100.00
12219;BME280;6172;42.646;23.344;2023-05-02T03:49:03;94979.22;;;8.86;100.00
12219;BME280;6172;42.646;23.344;2023-05-02T03:51:30;94993.94;;;8.92;100.00
12219;BME280;6172;42.646;23.344;2023-05-02T03:53:59;94988.47;;;8.99;100.00
12219;BME280;6172;42.646;23.344;2023-05-02T03:56:26;94976.03;;;9.01;100.00
12219;BME280;6172;42.646;23.344;2023-05-02T03:58:54;94973.69;;;9.00;100.00
12219;BME280;6172;42.646;23.344;2023-05-02T04:01:21;94989.63;;;9.05;100.00
12219;BME280;6172;42.646;23.344;2023-05-02T04:03:48;94989.19;;;9.13;100.00
12219;BME280;6172;42.646;23.344;2023-05-02T04:06:15;94988.34;;;9.20;100.00
12219;BME280;6172;42.646;23.344;2023-05-02T04:08:42;94988.00;;;9.18;100.00
12219;BME280;6172;42.646;23.344;2023-05-02T04:11:09;94975.94;;;9.19;100.00
12219;BME280;6172;42.646;23.344;2023-05-02T04:13:36;94978.22;;;9.27;100.00
12219;BME280;6172;42.646;23.344;2023-05-02T04:16:04;94989.50;;;9.22;100.00
12219;BME280;6172;42.646;23.344;2023-05-02T04:18:31;94979.75;;;9.32;100.00
12219;BME280;6172;42.646;23.344;2023-05-02T04:20:58;94982.06;;;9.33;100.00
12219;BME280;6172;42.646;23.344;2023-05-02T04:23:25;94980.44;;;9.43;100.00
12219;BME280;6172;42.646;23.344;2023-05-02T04:25:52;94981.16;;;9.50;100.00
12219;BME280;6172;42.646;23.344;2023-05-02T04:28:19;94985.81;;;9.53;100.00
12219;BME280;6172;42.646;23.344;2023-05-02T04:30:47;94990.41;;;9.63;100.00
12219;BME280;6172;42.646;23.344;2023-05-02T04:33:15;94971.38;;;9.60;100.00
12219;BME280;6172;42.646;23.344;2023-05-02T04:35:43;94983.81;;;9.61;100.00
12219;BME280;6172;42.646;23.344;2023-05-02T04:38:10;94994.94;;;9.77;100.00
12219;BME280;6172;42.646;23.344;2023-05-02T04:40:37;94990.22;;;9.84;100.00
12219;BME280;6172;42.646;23.344;2023-05-02T04:43:04;94982.50;;;9.79;100.00
12219;BME280;6172;42.646;23.344;2023-05-02T04:45:31;94985.19;;;9.83;100.00
12219;BME280;6172;42.646;23.344;2023-05-02T04:47:58;94986.78;;;9.77;100.00
12219;BME280;6172;42.646;23.344;2023-05-02T04:50:26;94996.53;;;9.78;100.00
12219;BME280;6172;42.646;23.344;2023-05-02T04:52:53;94978.22;;;9.78;100.00
12219;BME280;6172;42.646;23.344;2023-05-02T04:55:20;94996.47;;;9.81;100.00
12219;BME280;6172;42.646;23.344;2023-05-02T04:57:47;94988.69;;;9.87;100.00
12219;BME280;6172;42.646;23.344;2023-05-02T05:00:14;94977.00;;;9.86;100.00
12219;BME280;6172;42.646;23.344;2023-05-02T05:02:41;94990.56;;;9.90;100.00
12219;BME280;6172;42.646;23.344;2023-05-02T05:05:08;94998.53;;;10.18;100.00
12219;BME280;6172;42.646;23.344;2023-05-02T05:07:36;94979.03;;;10.23;100.00
12219;BME280;6172;42.646;23.344;2023-05-02T05:10:06;94978.53;;;10.31;100.00
12219;BME280;6172;42.646;23.344;2023-05-02T05:12:35;94981.25;;;10.35;100.00
12219;BME280;6172;42.646;23.344;2023-05-02T05:15:02;94990.63;;;10.30;100.00
12219;BME280;6172;42.646;23.344;2023-05-02T05:17:30;94983.25;;;10.27;100.00
12219;BME280;6172;42.646;23.344;2023-05-02T05:19:56;94988.22;;;10.36;100.00
12219;BME280;6172;42.646;23.344;2023-05-02T05:22:23;94978.38;;;10.49;100.00
12219;BME280;6172;42.646;23.344;2023-05-02T05:24:52;94981.50;;;10.81;100.00
12219;BME280;6172;42.646;23.344;2023-05-02T05:27:19;94979.75;;;10.98;100.00
12219;BME280;6172;42.646;23.344;2023-05-02T05:29:46;94988.34;;;10.96;100.00
12219;BME280;6172;42.646;23.344;2023-05-02T05:32:13;94984.22;;;11.15;100.00
12219;BME280;6172;42.646;23.344;2023-05-02T05:34:40;94993.38;;;11.84;100.00
12219;BME280;6172;42.646;23.344;2023-05-02T05:37:07;94993.84;;;12.48;100.00
12219;BME280;6172;42.646;23.344;2023-05-02T05:39:34;94978.28;;;13.79;100.00
12219;BME280;6172;42.646;23.344;2023-05-02T05:42:04;94993.63;;;13.02;99.55
12219;BME280;6172;42.646;23.344;2023-05-02T05:44:34;95000.03;;;14.02;93.93
12219;BME280;6172;42.646;23.344;2023-05-02T05:47:01;94994.50;;;14.50;86.45
12219;BME280;6172;42.646;23.344;2023-05-02T05:49:27;94992.13;;;14.52;82.25
12219;BME280;6172;42.646;23.344;2023-05-02T05:51:54;94987.78;;;14.83;77.80
12219;BME280;6172;42.646;23.344;2023-05-02T05:54:22;94986.53;;;15.41;72.08
12219;BME280;6172;42.646;23.344;2023-05-02T05:56:49;94995.28;;;15.77;69.61
12219;BME280;6172;42.646;23.344;2023-05-02T05:59:19;94983.94;;;15.88;67.95
12219;BME280;6172;42.646;23.344;2023-05-02T06:01:45;94993.94;;;15.94;67.19
12219;BME280;6172;42.646;23.344;2023-05-02T06:04:14;94995.88;;;16.31;62.95
12219;BME280;6172;42.646;23.344;2023-05-02T06:06:41;94996.69;;;17.21;60.62
12219;BME280;6172;42.646;23.344;2023-05-02T06:09:07;94998.41;;;17.50;57.47
12219;BME280;6172;42.646;23.344;2023-05-02T06:11:35;95003.47;;;17.73;54.69
12219;BME280;6172;42.646;23.344;2023-05-02T06:14:02;94994.53;;;17.38;54.34
12219;BME280;6172;42.646;23.344;2023-05-02T06:16:30;94997.84;;;17.33;55.13
12219;BME280;6172;42.646;23.344;2023-05-02T06:18:57;94989.78;;;17.17;54.68
12219;BME280;6172;42.646;23.344;2023-05-02T06:21:24;94993.78;;;17.99;53.68
12219;BME280;6172;42.646;23.344;2023-05-02T06:23:51;94992.41;;;17.64;52.62
12219;BME280;6172;42.646;23.344;2023-05-02T06:26:18;94986.47;;;18.05;51.31
12219;BME280;6172;42.646;23.344;2023-05-02T06:28:45;94989.56;;;17.33;51.74
12219;BME280;6172;42.646;23.344;2023-05-02T06:31:12;94984.47;;;17.75;51.23
12219;BME280;6172;42.646;23.344;2023-05-02T06:33:42;95000.97;;;18.36;49.97
12219;BME280;6172;42.646;23.344;2023-05-02T06:36:09;94984.81;;;19.01;48.35
12219;BME280;6172;42.646;23.344;2023-05-02T06:38:35;94979.59;;;19.12;46.96
12219;BME280;6172;42.646;23.344;2023-05-02T06:41:02;94977.84;;;19.60;45.20
12219;BME280;6172;42.646;23.344;2023-05-02T06:43:29;94985.38;;;19.59;44.60
12219;BME280;6172;42.646;23.344;2023-05-02T06:45:57;94975.25;;;18.57;46.04
12219;BME280;6172;42.646;23.344;2023-05-02T06:48:24;94975.47;;;19.85;44.33
12219;BME280;6172;42.646;23.344;2023-05-02T06:50:52;94980.16;;;18.53;45.58
12219;BME280;6172;42.646;23.344;2023-05-02T06:53:18;94976.22;;;17.75;47.97
12219;BME280;6172;42.646;23.344;2023-05-02T06:55:47;94987.22;;;16.79;50.58
12219;BME280;6172;42.646;23.344;2023-05-02T06:58:16;94986.44;;;17.96;49.97
12219;BME280;6172;42.646;23.344;2023-05-02T07:00:44;94978.44;;;17.98;49.54
12219;BME280;6172;42.646;23.344;2023-05-02T07:03:13;94969.31;;;16.62;50.91
12219;BME280;6172;42.646;23.344;2023-05-02T07:05:39;94966.13;;;17.81;48.62
12219;BME280;6172;42.646;23.344;2023-05-02T07:08:08;94978.44;;;17.98;47.38
12219;BME280;6172;42.646;23.344;2023-05-02T07:10:35;94976.38;;;18.59;46.63
12219;BME280;6172;42.646;23.344;2023-05-02T07:13:02;94982.44;;;17.97;46.31
12219;BME280;6172;42.646;23.344;2023-05-02T07:15:30;94977.75;;;19.00;45.09
12219;BME280;6172;42.646;23.344;2023-05-02T07:17:57;94971.72;;;20.06;42.08
12219;BME280;6172;42.646;23.344;2023-05-02T07:20:24;94989.88;;;19.11;43.52
12219;BME280;6172;42.646;23.344;2023-05-02T07:22:50;94986.56;;;20.18;40.98
12219;BME280;6172;42.646;23.344;2023-05-02T07:25:19;94969.09;;;20.68;39.81
12219;BME280;6172;42.646;23.344;2023-05-02T07:27:46;94983.91;;;19.82;40.75
12219;BME280;6172;42.646;23.344;2023-05-02T07:30:13;94977.75;;;18.82;41.62
12219;BME280;6172;42.646;23.344;2023-05-02T07:32:39;94976.69;;;19.42;42.03
12219;BME280;6172;42.646;23.344;2023-05-02T07:35:07;94977.94;;;17.81;44.41
12219;BME280;6172;42.646;23.344;2023-05-02T07:37:34;94970.41;;;18.21;44.44
12219;BME280;6172;42.646;23.344;2023-05-02T07:40:02;94979.75;;;17.75;45.14
12219;BME280;6172;42.646;23.344;2023-05-02T07:42:31;94968.16;;;18.29;43.88
12219;BME280;6172;42.646;23.344;2023-05-02T07:44:58;94981.53;;;17.69;45.08
12219;BME280;6172;42.646;23.344;2023-05-02T07:47:25;94979.91;;;18.78;44.08
12219;BME280;6172;42.646;23.344;2023-05-02T07:49:52;94972.66;;;20.03;41.01
12219;BME280;6172;42.646;23.344;2023-05-02T07:52:21;94979.00;;;19.26;41.29
12219;BME280;6172;42.646;23.344;2023-05-02T07:54:48;94982.06;;;18.92;42.26
12219;BME280;6172;42.646;23.344;2023-05-02T07:57:15;94969.38;;;18.28;43.41
12219;BME280;6172;42.646;23.344;2023-05-02T07:59:43;94983.56;;;18.84;43.55
12219;BME280;6172;42.646;23.344;2023-05-02T08:02:10;94970.19;;;20.05;40.91
12219;BME280;6172;42.646;23.344;2023-05-02T08:04:38;94976.22;;;18.81;42.50
12219;BME280;6172;42.646;23.344;2023-05-02T08:07:05;94972.47;;;18.39;43.01
12219;BME280;6172;42.646;23.344;2023-05-02T08:09:32;94975.28;;;18.66;44.02
12219;BME280;6172;42.646;23.344;2023-05-02T08:12:02;94969.00;;;19.88;41.78
12219;BME280;6172;42.646;23.344;2023-05-02T08:14:29;94966.22;;;19.97;40.77
12219;BME280;6172;42.646;23.344;2023-05-02T08:16:58;94974.75;;;19.76;40.38
12219;BME280;6172;42.646;23.344;2023-05-02T08:19:25;94986.34;;;18.84;41.94
12219;BME280;6172;42.646;23.344;2023-05-02T08:21:52;94982.03;;;18.83;42.04
12219;BME280;6172;42.646;23.344;2023-05-02T08:24:19;94988.31;;;18.74;42.63
12219;BME280;6172;42.646;23.344;2023-05-02T08:26:46;94985.03;;;18.40;43.24
12219;BME280;6172;42.646;23.344;2023-05-02T08:29:13;94979.28;;;18.83;42.74
12219;BME280;6172;42.646;23.344;2023-05-02T08:31:40;94983.72;;;18.71;43.13
12219;BME280;6172;42.646;23.344;2023-05-02T08:34:08;94984.06;;;18.82;43.03
12219;BME280;6172;42.646;23.344;2023-05-02T08:36:35;94978.81;;;19.47;41.47
12219;BME280;6172;42.646;23.344;2023-05-02T08:39:02;94976.53;;;19.01;42.27
12219;BME280;6172;42.646;23.344;2023-05-02T08:41:29;94973.44;;;18.72;41.74
12219;BME280;6172;42.646;23.344;2023-05-02T08:43:58;94974.06;;;18.76;42.84
12219;BME280;6172;42.646;23.344;2023-05-02T08:46:25;94968.81;;;18.60;41.85
12219;BME280;6172;42.646;23.344;2023-05-02T08:48:56;94971.63;;;18.11;43.69
12219;BME280;6172;42.646;23.344;2023-05-02T08:51:26;94967.31;;;18.86;41.97
12219;BME280;6172;42.646;23.344;2023-05-02T08:53:55;94975.13;;;19.05;41.96
12219;BME280;6172;42.646;23.344;2023-05-02T08:56:22;94962.84;;;18.52;42.40
12219;BME280;6172;42.646;23.344;2023-05-02T08:58:50;94971.63;;;18.11;42.88
12219;BME280;6172;42.646;23.344;2023-05-02T09:01:18;94969.19;;;18.22;42.94
12219;BME280;6172;42.646;23.344;2023-05-02T09:03:47;94963.13;;;18.45;43.25
12219;BME280;6172;42.646;23.344;2023-05-02T09:06:16;94960.19;;;18.40;43.06
12219;BME280;6172;42.646;23.344;2023-05-02T09:08:46;94967.16;;;18.71;42.11
12219;BME280;6172;42.646;23.344;2023-05-02T09:11:14;94950.75;;;19.31;40.57
12219;BME280;6172;42.646;23.344;2023-05-02T09:13:42;94963.59;;;19.52;41.10
12219;BME280;6172;42.646;23.344;2023-05-02T09:16:10;94949.47;;;19.92;40.47
12219;BME280;6172;42.646;23.344;2023-05-02T09:18:39;94941.31;;;19.56;39.68
12219;BME280;6172;42.646;23.344;2023-05-02T09:21:07;94948.50;;;19.62;39.48
12219;BME280;6172;42.646;23.344;2023-05-02T09:23:37;94950.16;;;18.91;40.35
12219;BME280;6172;42.646;23.344;2023-05-02T09:26:16;94945.53;;;19.24;40.05
12219;BME280;6172;42.646;23.344;2023-05-02T09:28:45;94943.03;;;19.17;39.72
12219;BME280;6172;42.646;23.344;2023-05-02T09:31:16;94947.53;;;19.32;40.07
12219;BME280;6172;42.646;23.344;2023-05-02T09:33:49;94944.84;;;19.56;40.05
12219;BME280;6172;42.646;23.344;2023-05-02T09:36:54;94960.25;;;20.22;39.02
12219;BME280;6172;42.646;23.344;2023-05-02T09:40:05;94940.63;;;20.20;38.00
12219;BME280;6172;42.646;23.344;2023-05-02T09:42:35;94932.41;;;20.49;38.06
12219;BME280;6172;42.646;23.344;2023-05-02T09:45:02;94922.41;;;20.28;37.54
12219;BME280;6172;42.646;23.344;2023-05-02T09:47:29;94925.34;;;20.48;37.76
12219;BME280;6172;42.646;23.344;2023-05-02T09:49:56;94928.34;;;20.59;37.51
12219;BME280;6172;42.646;23.344;2023-05-02T09:55:19;94930.13;;;20.71;37.00
12219;BME280;6172;42.646;23.344;2023-05-02T10:01:59;94922.66;;;20.16;36.70
12219;BME280;6172;42.646;23.344;2023-05-02T10:16:04;94899.84;;;20.44;35.80
12219;BME280;6172;42.646;23.344;2023-05-02T10:21:47;94907.75;;;20.60;34.47
12219;BME280;6172;42.646;23.344;2023-05-02T10:24:36;94901.00;;;20.99;34.55
12219;BME280;6172;42.646;23.344;2023-05-02T10:27:59;94894.09;;;21.38;33.19
12219;BME280;6172;42.646;23.344;2023-05-02T10:39:24;94881.97;;;20.07;34.28
12219;BME280;6172;42.646;23.344;2023-05-02T10:41:57;94895.44;;;20.99;32.51
12219;BME280;6172;42.646;23.344;2023-05-02T10:44:31;94883.81;;;20.48;32.79
12219;BME280;6172;42.646;23.344;2023-05-02T10:46:59;94885.09;;;21.00;32.67
12219;BME280;6172;42.646;23.344;2023-05-02T10:49:27;94869.66;;;20.70;32.60
12219;BME280;6172;42.646;23.344;2023-05-02T10:52:01;94878.13;;;21.04;32.71
12219;BME280;6172;42.646;23.344;2023-05-02T10:55:20;94886.16;;;21.02;32.65
12219;BME280;6172;42.646;23.344;2023-05-02T10:58:20;94879.63;;;20.76;32.38
12219;BME280;6172;42.646;23.344;2023-05-02T11:00:48;94874.72;;;20.01;34.98
12219;BME280;6172;42.646;23.344;2023-05-02T11:03:55;94880.91;;;19.96;33.73
12219;BME280;6172;42.646;23.344;2023-05-02T11:06:26;94875.56;;;19.60;34.51
12219;BME280;6172;42.646;23.344;2023-05-02T11:11:57;94875.75;;;20.12;33.54
12219;BME280;6172;42.646;23.344;2023-05-02T11:14:43;94873.78;;;20.13;33.72
12219;BME280;6172;42.646;23.344;2023-05-02T11:17:13;94869.81;;;20.28;33.45
12219;BME280;6172;42.646;23.344;2023-05-02T11:20:17;94874.50;;;19.90;34.06
12219;BME280;6172;42.646;23.344;2023-05-02T11:22:44;94874.09;;;19.73;34.63
12219;BME280;6172;42.646;23.344;2023-05-02T11:25:28;94863.13;;;19.55;34.81
12219;BME280;6172;42.646;23.344;2023-05-02T11:28:06;94862.19;;;19.07;35.78
12219;BME280;6172;42.646;23.344;2023-05-02T11:30:38;94856.13;;;19.36;34.89
12219;BME280;6172;42.646;23.344;2023-05-02T11:33:16;94845.13;;;19.18;35.53
12219;BME280;6172;42.646;23.344;2023-05-02T11:35:45;94854.00;;;19.31;36.07
12219;BME280;6172;42.646;23.344;2023-05-02T11:38:15;94851.16;;;19.82;36.12
12219;BME280;6172;42.646;23.344;2023-05-02T11:40:50;94857.16;;;20.13;35.34
12219;BME280;6172;42.646;23.344;2023-05-02T11:43:19;94846.75;;;20.31;34.75
12219;BME280;6172;42.646;23.344;2023-05-02T11:45:49;94839.94;;;20.32;34.96
12219;BME280;6172;42.646;23.344;2023-05-02T11:48:18;94848.41;;;20.14;35.10
12219;BME280;6172;42.646;23.344;2023-05-02T11:50:48;94842.16;;;20.28;34.43
12219;BME280;6172;42.646;23.344;2023-05-02T11:53:17;94838.63;;;20.04;34.51
12219;BME280;6172;42.646;23.344;2023-05-02T11:55:48;94836.63;;;19.72;35.79
12219;BME280;6172;42.646;23.344;2023-05-02T11:58:17;94841.53;;;19.77;36.13
12219;BME280;6172;42.646;23.344;2023-05-02T12:00:46;94844.69;;;19.85;35.44
12219;BME280;6172;42.646;23.344;2023-05-02T12:03:22;94830.47;;;19.44;35.94
12219;BME280;6172;42.646;23.344;2023-05-02T12:05:49;94824.16;;;19.77;35.63
12219;BME280;6172;42.646;23.344;2023-05-02T12:08:27;94822.63;;;19.99;35.36
12219;BME280;6172;42.646;23.344;2023-05-02T12:10:55;94814.03;;;19.74;35.70
12219;BME280;6172;42.646;23.344;2023-05-02T12:13:23;94810.50;;;19.97;35.77
12219;BME280;6172;42.646;23.344;2023-05-02T12:15:54;94819.22;;;19.81;35.24
12219;BME280;6172;42.646;23.344;2023-05-02T12:18:24;94806.22;;;19.72;35.34
12219;BME280;6172;42.646;23.344;2023-05-02T12:21:09;94808.03;;;19.75;35.37
12219;BME280;6172;42.646;23.344;2023-05-02T12:23:38;94806.50;;;19.74;36.21
12219;BME280;6172;42.646;23.344;2023-05-02T12:26:16;94810.69;;;19.93;35.71
12219;BME280;6172;42.646;23.344;2023-05-02T12:28:49;94807.69;;;19.82;35.25
12219;BME280;6172;42.646;23.344;2023-05-02T12:31:22;94801.19;;;19.62;35.45
12219;BME280;6172;42.646;23.344;2023-05-02T12:33:51;94793.56;;;19.80;35.85
12219;BME280;6172;42.646;23.344;2023-05-02T12:36:22;94784.38;;;19.50;35.31
12219;BME280;6172;42.646;23.344;2023-05-02T12:38:50;94770.50;;;19.27;35.77
12219;BME280;6172;42.646;23.344;2023-05-02T12:41:32;94781.47;;;19.45;35.64
12219;BME280;6172;42.646;23.344;2023-05-02T12:43:59;94778.31;;;19.61;34.92
12219;BME280;6172;42.646;23.344;2023-05-02T12:46:36;94775.84;;;19.63;34.83
12219;BME280;6172;42.646;23.344;2023-05-02T12:49:04;94766.25;;;19.73;34.82
12219;BME280;6172;42.646;23.344;2023-05-02T12:51:32;94772.91;;;19.67;35.16
12219;BME280;6172;42.646;23.344;2023-05-02T12:53:59;94769.59;;;19.21;35.68
12219;BME280;6172;42.646;23.344;2023-05-02T12:56:39;94764.91;;;19.45;35.90
12219;BME280;6172;42.646;23.344;2023-05-02T12:59:09;94776.44;;;19.67;35.41
12219;BME280;6172;42.646;23.344;2023-05-02T13:02:01;94767.31;;;19.52;34.84
12219;BME280;6172;42.646;23.344;2023-05-02T13:04:34;94768.78;;;19.62;34.57
12219;BME280;6172;42.646;23.344;2023-05-02T13:07:03;94767.44;;;19.57;34.33
12219;BME280;6172;42.646;23.344;2023-05-02T13:09:30;94775.72;;;19.34;34.86
12219;BME280;6172;42.646;23.344;2023-05-02T13:11:58;94755.16;;;19.26;35.28
12219;BME280;6172;42.646;23.344;2023-05-02T13:14:28;94766.06;;;19.29;35.05
12219;BME280;6172;42.646;23.344;2023-05-02T13:16:55;94777.56;;;19.28;34.95
12219;BME280;6172;42.646;23.344;2023-05-02T13:19:25;94791.03;;;18.93;35.17
12219;BME280;6172;42.646;23.344;2023-05-02T13:21:55;94771.56;;;18.88;35.57
12219;BME280;6172;42.646;23.344;2023-05-02T13:24:22;94797.00;;;19.01;35.28
12219;BME280;6172;42.646;23.344;2023-05-02T13:26:49;94775.81;;;18.98;35.09
12219;BME280;6172;42.646;23.344;2023-05-02T13:29:16;94777.50;;;18.95;35.22
12219;BME280;6172;42.646;23.344;2023-05-02T13:31:43;94765.06;;;19.00;35.21
12219;BME280;6172;42.646;23.344;2023-05-02T13:34:10;94776.44;;;18.93;34.25
12219;BME280;6172;42.646;23.344;2023-05-02T13:36:40;94779.78;;;18.97;34.58
12219;BME280;6172;42.646;23.344;2023-05-02T13:39:10;94774.56;;;18.99;34.51
12219;BME280;6172;42.646;23.344;2023-05-02T13:41:37;94774.72;;;18.95;34.53
12219;BME280;6172;42.646;23.344;2023-05-02T13:44:04;94777.09;;;18.79;34.62
12219;BME280;6172;42.646;23.344;2023-05-02T13:46:31;94781.09;;;18.69;34.67